createdAt,value
2018-04-25T00:00:20.860Z,11.20
2018-04-25T00:02:49.525Z,11.20
2018-04-25T00:05:17.009Z,11.10
2018-04-25T00:07:44.944Z,11.10
2018-04-25T00:10:16.461Z,11.00
2018-04-25T00:12:45.551Z,11.00
2018-04-25T00:15:16.310Z,10.90
2018-04-25T00:17:51.838Z,10.90
2018-04-25T00:20:23.245Z,11.00
2018-04-25T00:22:53.690Z,10.90
2018-04-25T00:25:24.491Z,10.90
2018-04-25T00:27:51.976Z,11.00
2018-04-25T00:30:19.407Z,10.90
2018-04-25T00:32:46.876Z,10.90
2018-04-25T00:35:14.303Z,11.00
2018-04-25T00:37:41.753Z,11.00
2018-04-25T00:40:09.171Z,11.00
2018-04-25T00:42:36.659Z,11.00
2018-04-25T00:45:04.112Z,10.90
2018-04-25T00:47:31.590Z,10.90
2018-04-25T00:49:59.003Z,10.80
2018-04-25T00:52:26.430Z,10.80
2018-04-25T00:54:53.862Z,10.70
2018-04-25T00:57:21.302Z,10.70
2018-04-25T00:59:48.743Z,10.70
2018-04-25T01:02:16.183Z,10.60
2018-04-25T01:04:43.611Z,10.50
2018-04-25T01:07:11.039Z,10.50
2018-04-25T01:09:38.863Z,10.40
2018-04-25T01:12:06.292Z,10.40
2018-04-25T01:14:34.719Z,10.40
2018-04-25T01:17:02.155Z,10.30
2018-04-25T01:19:29.603Z,10.30
2018-04-25T01:21:57.160Z,10.30
2018-04-25T01:24:24.575Z,10.30
2018-04-25T01:26:52.435Z,10.30
2018-04-25T01:29:22.843Z,10.30
2018-04-25T01:31:52.852Z,10.30
2018-04-25T01:34:22.744Z,10.30
2018-04-25T01:36:51.033Z,10.50
2018-04-25T01:39:19.853Z,10.60
2018-04-25T01:41:47.296Z,10.50
2018-04-25T01:44:27.188Z,10.40
2018-04-25T01:46:58.243Z,10.30
2018-04-25T01:49:30.498Z,10.30
2018-04-25T01:52:09.639Z,10.30
2018-04-25T01:54:48.867Z,10.40
2018-04-25T01:57:28.167Z,10.40
2018-04-25T02:00:07.814Z,10.40
2018-04-25T02:02:34.749Z,10.50
2018-04-25T02:05:02.186Z,10.40
2018-04-25T02:07:29.611Z,10.50
2018-04-25T02:09:57.048Z,10.40
2018-04-25T02:12:24.475Z,10.50
2018-04-25T02:14:51.911Z,10.40
2018-04-25T02:17:19.344Z,10.40
2018-04-25T02:19:46.776Z,10.30
2018-04-25T02:22:14.199Z,10.40
2018-04-25T02:24:41.645Z,10.40
2018-04-25T02:27:09.082Z,10.30
2018-04-25T02:29:36.518Z,10.30
2018-04-25T02:32:04.040Z,10.30
2018-04-25T02:34:31.397Z,10.30
2018-04-25T02:36:58.827Z,10.20
2018-04-25T02:39:26.265Z,10.30
2018-04-25T02:41:53.704Z,10.20
2018-04-25T02:44:21.139Z,10.30
2018-04-25T02:46:48.569Z,10.30
2018-04-25T02:49:16.006Z,10.30
2018-04-25T02:51:43.432Z,10.30
2018-04-25T02:54:10.859Z,10.40
2018-04-25T02:56:38.319Z,10.40
2018-04-25T02:59:05.759Z,10.50
2018-04-25T03:01:33.576Z,10.30
2018-04-25T03:04:01.023Z,10.30
2018-04-25T03:06:28.444Z,10.30
2018-04-25T03:08:56.283Z,10.20
2018-04-25T03:11:23.896Z,10.20
2018-04-25T03:13:51.317Z,10.20
2018-04-25T03:16:18.767Z,10.30
2018-04-25T03:18:46.210Z,10.20
2018-04-25T03:21:13.640Z,10.20
2018-04-25T03:23:41.071Z,10.10
2018-04-25T03:26:09.403Z,10.10
2018-04-25T03:28:36.849Z,10.10
2018-04-25T03:31:04.292Z,10.10
2018-04-25T03:33:31.719Z,10.20
2018-04-25T03:35:59.149Z,10.10
2018-04-25T03:38:26.979Z,10.00
2018-04-25T03:40:55.257Z,10.00
2018-04-25T03:43:22.697Z,9.90
2018-04-25T03:45:50.119Z,9.80
2018-04-25T03:48:17.549Z,9.80
2018-04-25T03:50:44.980Z,9.80
2018-04-25T03:53:12.412Z,9.70
2018-04-25T03:55:39.851Z,9.70
2018-04-25T03:58:07.852Z,9.70
2018-04-25T04:00:35.301Z,9.60
2018-04-25T04:03:02.729Z,9.60
2018-04-25T04:05:30.151Z,9.50
2018-04-25T04:07:57.591Z,9.50
2018-04-25T04:10:25.039Z,9.50
2018-04-25T04:12:52.474Z,9.60
2018-04-25T04:15:19.900Z,9.60
2018-04-25T04:17:47.716Z,9.80
2018-04-25T04:20:15.139Z,9.80
2018-04-25T04:22:42.563Z,9.80
2018-04-25T04:25:10.393Z,9.80
2018-04-25T04:27:37.820Z,9.80
2018-04-25T04:30:05.313Z,9.80
2018-04-25T04:32:33.064Z,9.80
2018-04-25T04:35:00.500Z,9.90
2018-04-25T04:37:27.943Z,9.80
2018-04-25T04:39:55.446Z,9.80
2018-04-25T04:42:22.859Z,9.90
2018-04-25T04:44:50.313Z,9.80
2018-04-25T04:47:17.735Z,9.80
2018-04-25T04:49:45.163Z,9.90
2018-04-25T04:52:12.593Z,9.90
2018-04-25T04:54:40.032Z,10.00
2018-04-25T04:57:07.859Z,10.10
2018-04-25T04:59:35.292Z,10.10
2018-04-25T05:02:02.712Z,10.10
2018-04-25T05:04:30.147Z,10.20
2018-04-25T05:06:57.570Z,10.20
2018-04-25T05:09:25.022Z,10.30
2018-04-25T05:11:52.447Z,10.30
2018-04-25T05:14:19.889Z,10.40
2018-04-25T05:16:47.707Z,10.50
2018-04-25T05:19:15.171Z,10.50
2018-04-25T05:21:42.608Z,10.60
2018-04-25T05:24:10.044Z,10.70
2018-04-25T05:26:37.490Z,10.70
2018-04-25T05:29:04.919Z,10.80
2018-04-25T05:31:32.356Z,10.90
2018-04-25T05:33:59.798Z,11.10
2018-04-25T05:36:27.228Z,11.20
2018-04-25T05:38:54.665Z,11.40
2018-04-25T05:41:22.486Z,11.90
2018-04-25T05:43:56.488Z,11.90
2018-04-25T05:46:26.564Z,12.20
2018-04-25T05:48:54.047Z,12.40
2018-04-25T05:51:21.485Z,12.60
2018-04-25T05:53:48.972Z,12.80
2018-04-25T05:56:16.435Z,13.00
2018-04-25T05:58:44.615Z,13.20
2018-04-25T06:01:12.096Z,13.40
2018-04-25T06:03:39.556Z,13.60
2018-04-25T06:06:09.747Z,13.80
2018-04-25T06:08:37.195Z,13.80
2018-04-25T06:11:04.632Z,13.80
2018-04-25T06:13:32.050Z,14.00
2018-04-25T06:15:59.487Z,14.20
2018-04-25T06:18:26.920Z,14.30
2018-04-25T06:20:54.360Z,14.40
2018-04-25T06:23:21.854Z,14.30
2018-04-25T06:28:48.565Z,14.20
2018-04-25T06:31:16.821Z,14.30
2018-04-25T06:33:48.215Z,14.30
2018-04-25T06:36:15.663Z,14.30
2018-04-25T06:38:43.111Z,14.30
2018-04-25T06:41:11.235Z,14.30
2018-04-25T06:43:43.518Z,14.10
2018-04-25T06:46:16.849Z,13.90
2018-04-25T06:48:45.189Z,14.00
2018-04-25T06:54:09.283Z,14.30
2018-04-25T06:56:36.948Z,14.30
2018-04-25T06:59:13.873Z,14.40
2018-04-25T07:01:41.307Z,14.70
2018-04-25T07:04:11.279Z,14.70
2018-04-25T07:06:38.707Z,14.70
2018-04-25T07:09:06.141Z,14.80
2018-04-25T07:11:33.567Z,15.00
2018-04-25T07:14:01.458Z,15.00
2018-04-25T07:16:29.519Z,15.00
2018-04-25T07:18:56.959Z,15.10
2018-04-25T07:21:27.383Z,15.20
2018-04-25T07:24:00.270Z,15.50
2018-04-25T07:26:28.116Z,16.10
2018-04-25T07:29:01.796Z,16.10
2018-04-25T07:31:29.217Z,16.20
2018-04-25T07:34:01.352Z,16.50
2018-04-25T07:36:29.702Z,16.60
2018-04-25T07:38:58.285Z,16.80
2018-04-25T07:41:27.578Z,16.80
2018-04-25T07:44:32.015Z,17.00
2018-04-25T07:46:59.457Z,17.00
2018-04-25T07:49:28.162Z,17.20
2018-04-25T07:51:55.598Z,17.40
2018-04-25T07:54:23.039Z,17.20
2018-04-25T07:56:50.899Z,16.90
2018-04-25T07:59:18.325Z,16.90
2018-04-25T08:01:46.154Z,16.90
2018-04-25T08:04:14.603Z,16.90
2018-04-25T08:06:42.028Z,16.90
2018-04-25T08:09:10.707Z,17.30
2018-04-25T08:11:39.067Z,17.30
2018-04-25T08:14:18.111Z,17.20
2018-04-25T08:16:57.811Z,17.30
2018-04-25T08:22:18.694Z,17.10
2018-04-25T08:24:47.939Z,16.90
2018-04-25T08:27:26.813Z,16.90
2018-04-25T08:29:56.797Z,16.80
2018-04-25T08:32:24.620Z,16.80
2018-04-25T08:35:13.887Z,16.90
2018-04-25T08:43:26.511Z,16.80
2018-04-25T08:46:07.284Z,17.00
2018-04-25T08:48:38.943Z,16.70
2018-04-25T08:51:07.320Z,16.80
2018-04-25T08:53:34.754Z,16.80
2018-04-25T08:56:02.277Z,16.80
2018-04-25T08:58:29.711Z,16.90
2018-04-25T09:00:57.163Z,16.80
2018-04-25T09:03:25.295Z,16.80
2018-04-25T09:05:53.080Z,16.60
2018-04-25T09:08:20.439Z,16.60
2018-04-25T09:10:48.276Z,17.00
2018-04-25T09:13:15.780Z,17.10
2018-04-25T09:15:44.558Z,17.20
2018-04-25T09:18:11.987Z,17.30
2018-04-25T09:21:01.599Z,17.20
2018-04-25T09:23:32.761Z,17.30
2018-04-25T09:28:44.283Z,17.40
2018-04-25T09:33:59.902Z,17.80
2018-04-25T09:36:38.330Z,18.10
2018-04-25T09:39:05.760Z,18.30
2018-04-25T09:41:33.944Z,18.30
2018-04-25T09:44:01.377Z,18.50
2018-04-25T09:46:35.993Z,18.60
2018-04-25T09:49:04.268Z,18.60
2018-04-25T09:54:08.035Z,18.70
2018-04-25T09:56:38.365Z,19.00
2018-04-25T09:59:09.400Z,19.00
2018-04-25T10:18:05.871Z,18.60
2018-04-25T12:06:44.595Z,18.40
2018-04-25T12:09:15.021Z,18.20
2018-04-25T12:11:56.675Z,18.10
2018-04-25T12:17:15.008Z,17.90
2018-04-25T12:23:17.955Z,17.80
2018-04-25T12:25:58.748Z,17.90
2018-04-25T12:51:30.494Z,18.20
2018-04-25T12:53:58.855Z,18.40
2018-04-25T12:56:26.219Z,18.60
2018-04-25T12:58:53.701Z,18.80
2018-04-25T13:01:21.162Z,19.10
2018-04-25T13:03:48.608Z,19.20
2018-04-25T13:06:16.067Z,19.40
2018-04-25T13:08:43.492Z,19.50
2018-04-25T13:11:10.930Z,19.60
2018-04-25T13:13:38.345Z,19.80
2018-04-25T13:16:05.770Z,19.80
2018-04-25T13:18:33.218Z,19.70
2018-04-25T13:21:00.654Z,19.60
2018-04-25T13:23:28.071Z,19.50
2018-04-25T13:25:55.507Z,19.10
2018-04-25T13:28:22.937Z,18.70
2018-04-25T13:30:50.373Z,18.40
2018-04-25T13:33:17.794Z,18.30
2018-04-25T13:35:45.253Z,17.90
2018-04-25T13:38:12.680Z,17.60
2018-04-25T13:40:40.113Z,17.10
2018-04-25T13:43:07.550Z,17.00
2018-04-25T13:45:35.389Z,16.90
2018-04-25T13:48:02.823Z,16.90
2018-04-25T13:50:30.259Z,17.30
2018-04-25T13:52:57.682Z,17.70
2018-04-25T13:55:25.115Z,18.00
2018-04-25T13:57:52.560Z,18.10
2018-04-25T14:00:20.016Z,17.90
2018-04-25T14:02:47.470Z,18.00
2018-04-25T14:05:14.915Z,18.20
2018-04-25T14:07:42.356Z,18.40
2018-04-25T14:10:09.779Z,18.50
2018-04-25T14:12:38.082Z,18.60
2018-04-25T14:15:05.503Z,18.60
2018-04-25T14:17:33.351Z,18.60
2018-04-25T14:20:00.775Z,18.60
2018-04-25T14:22:28.223Z,18.60
2018-04-25T14:24:55.659Z,18.70
2018-04-25T14:27:23.100Z,18.90
2018-04-25T14:29:50.917Z,19.30
2018-04-25T14:32:18.775Z,19.30
2018-04-25T14:34:46.207Z,19.30
2018-04-25T14:37:13.647Z,19.30
2018-04-25T14:39:41.496Z,18.90
2018-04-25T14:42:08.943Z,18.90
2018-04-25T14:44:36.371Z,18.60
2018-04-25T14:47:03.815Z,18.30
2018-04-25T14:49:31.244Z,18.50
2018-04-25T14:51:58.688Z,18.80
2018-04-25T14:54:26.510Z,18.90
2018-04-25T14:56:53.948Z,18.90
2018-04-25T14:59:21.371Z,18.90
2018-04-25T15:01:49.218Z,18.70
2018-04-25T15:04:16.648Z,18.70
2018-04-25T15:06:44.086Z,18.60
2018-04-25T15:09:11.519Z,18.50
2018-04-25T15:11:39.299Z,18.30
2018-04-25T15:14:07.394Z,18.30
2018-04-25T15:16:34.830Z,18.20
2018-04-25T15:19:02.278Z,18.20
2018-04-25T15:21:29.703Z,18.20
2018-04-25T15:23:57.518Z,17.90
2018-04-25T15:26:24.970Z,17.90
2018-04-25T15:28:52.395Z,17.80
2018-04-25T15:31:19.822Z,17.60
2018-04-25T15:33:47.260Z,17.30
2018-04-25T15:36:14.689Z,17.10
2018-04-25T15:38:42.127Z,17.00
2018-04-25T15:41:09.575Z,16.90
2018-04-25T15:43:37.016Z,16.70
2018-04-25T15:46:04.846Z,16.30
2018-04-25T15:48:32.292Z,16.30
2018-04-25T15:50:59.718Z,16.20
2018-04-25T15:53:27.282Z,16.10
2018-04-25T15:55:54.640Z,16.00
2018-04-25T15:58:22.074Z,15.90
2018-04-25T16:00:49.900Z,15.80
2018-04-25T16:03:17.340Z,15.80
2018-04-25T16:05:44.773Z,15.70
2018-04-25T16:08:12.247Z,15.90
2018-04-25T16:10:39.686Z,16.20
2018-04-25T16:13:07.120Z,16.70
2018-04-25T16:15:34.938Z,16.90
2018-04-25T16:18:02.382Z,16.90
2018-04-25T16:20:29.819Z,16.70
2018-04-25T16:22:57.286Z,16.70
2018-04-25T16:25:24.695Z,16.50
2018-04-25T16:27:52.140Z,16.50
2018-04-25T16:30:19.563Z,16.70
2018-04-25T16:32:47.016Z,16.80
2018-04-25T16:35:14.444Z,16.50
2018-04-25T16:37:41.889Z,16.40
2018-04-25T16:40:09.708Z,16.20
2018-04-25T16:42:37.148Z,16.20
2018-04-25T16:45:04.591Z,15.90
2018-04-25T16:47:32.027Z,15.90
2018-04-25T16:49:59.468Z,16.00
2018-04-25T16:52:26.906Z,16.00
2018-04-25T16:54:54.336Z,15.90
2018-04-25T16:57:21.788Z,15.60
2018-04-25T16:59:49.214Z,15.50
2018-04-25T17:02:16.650Z,15.70
2018-04-25T17:04:44.487Z,15.70
2018-04-25T17:07:11.912Z,15.70
2018-04-25T17:09:39.356Z,15.80
2018-04-25T17:12:07.167Z,15.80
2018-04-25T17:14:34.604Z,15.80
2018-04-25T17:17:02.076Z,15.80
2018-04-25T17:19:29.495Z,15.70
2018-04-25T17:21:56.922Z,15.70
2018-04-25T17:24:24.780Z,15.70
2018-04-25T17:26:52.204Z,15.70
2018-04-25T17:29:19.656Z,15.60
2018-04-25T17:31:47.079Z,15.40
2018-04-25T17:34:14.911Z,15.30
2018-04-25T17:36:42.339Z,15.30
2018-04-25T17:39:09.833Z,15.20
2018-04-25T17:41:37.294Z,15.10
2018-04-25T17:44:04.780Z,15.20
2018-04-25T18:07:17.043Z,14.90
2018-04-25T18:12:40.157Z,15.00
2018-04-25T18:18:40.758Z,15.10
2018-04-25T18:44:04.488Z,14.40
2018-04-25T18:46:31.958Z,14.50
2018-04-25T18:51:57.733Z,14.40
2018-04-25T18:57:11.630Z,14.30
2018-04-25T18:59:47.219Z,14.20
2018-04-25T19:08:05.437Z,14.30
2018-04-25T19:14:03.179Z,14.30
2018-04-25T19:16:38.674Z,14.30
2018-04-25T19:19:36.973Z,14.20
2018-04-25T19:22:24.379Z,14.30
2018-04-25T22:54:44.772Z,11.70
2018-04-25T22:57:15.952Z,11.80
2018-04-25T22:59:43.985Z,11.70
2018-04-25T23:02:12.399Z,11.80
2018-04-25T23:04:43.272Z,11.80
2018-04-25T23:07:17.705Z,11.90
2018-04-25T23:09:47.376Z,11.90
2018-04-25T23:12:20.398Z,11.80
2018-04-25T23:15:05.364Z,11.90
2018-04-25T23:17:36.306Z,11.80
2018-04-25T23:20:05.608Z,11.70
2018-04-25T23:25:23.082Z,11.80
2018-04-25T23:27:50.759Z,11.70
2018-04-25T23:30:19.524Z,11.60
2018-04-25T23:32:51.363Z,11.60
2018-04-25T23:35:21.230Z,11.50
2018-04-25T23:37:53.417Z,11.40
2018-04-25T23:40:25.607Z,11.40
2018-04-25T23:42:54.952Z,11.30
2018-04-25T23:45:23.657Z,11.30
2018-04-25T23:47:52.713Z,11.20
2018-04-25T23:50:22.360Z,11.10
2018-04-25T23:52:51.742Z,11.00
2018-04-25T23:55:19.238Z,11.00
2018-04-25T23:57:50.207Z,11.00
